createdAt,value
2023-04-30T00:02:10.993Z,83.53
2023-04-30T00:04:37.955Z,83.37
2023-04-30T00:07:04.882Z,83.55
2023-04-30T00:09:31.750Z,82.82
2023-04-30T00:11:58.568Z,82.55
2023-04-30T00:14:25.566Z,81.60
2023-04-30T00:16:52.410Z,81.50
2023-04-30T00:19:19.361Z,81.73
2023-04-30T00:21:46.358Z,81.66
2023-04-30T00:24:13.161Z,81.89
2023-04-30T00:26:40.093Z,81.54
2023-04-30T00:29:07.361Z,80.68
2023-04-30T00:31:34.171Z,79.81
2023-04-30T00:34:01.093Z,78.54
2023-04-30T00:36:27.908Z,78.10
2023-04-30T00:38:54.700Z,79.78
2023-04-30T00:41:21.621Z,79.51
2023-04-30T00:43:48.437Z,80.76
2023-04-30T00:46:15.286Z,80.30
2023-04-30T00:48:42.296Z,80.79
2023-04-30T00:51:09.190Z,80.19
2023-04-30T00:53:36.668Z,78.98
2023-04-30T00:56:04.054Z,78.74
2023-04-30T00:58:31.144Z,79.94
2023-04-30T01:01:01.940Z,80.69
2023-04-30T01:03:29.158Z,80.83
2023-04-30T01:05:56.078Z,79.60
2023-04-30T01:08:22.988Z,78.95
2023-04-30T01:10:54.415Z,78.95
2023-04-30T01:13:30.857Z,78.28
2023-04-30T01:16:01.002Z,78.38
2023-04-30T01:18:31.830Z,78.71
2023-04-30T01:21:02.271Z,78.50
2023-04-30T01:23:38.292Z,78.85
2023-04-30T01:26:14.290Z,80.00
2023-04-30T01:28:44.232Z,79.11
2023-04-30T01:31:15.126Z,78.48
2023-04-30T01:33:42.040Z,78.19
2023-04-30T01:36:17.533Z,79.08
2023-04-30T01:38:54.312Z,79.90
2023-04-30T01:41:21.934Z,80.11
2023-04-30T01:43:56.424Z,81.90
2023-04-30T01:46:27.772Z,80.72
2023-04-30T01:49:04.290Z,80.14
2023-04-30T01:51:33.079Z,79.69
2023-04-30T01:54:03.639Z,81.03
2023-04-30T01:56:38.632Z,81.68
2023-04-30T01:59:06.262Z,82.30
2023-04-30T02:01:33.614Z,81.42
2023-04-30T02:04:00.744Z,81.28
2023-04-30T02:06:28.869Z,81.18
2023-04-30T02:08:57.036Z,80.82
2023-04-30T02:11:24.955Z,81.16
2023-04-30T02:13:51.804Z,82.19
2023-04-30T02:16:18.785Z,81.95
2023-04-30T02:18:46.037Z,82.36
2023-04-30T02:21:12.955Z,81.87
2023-04-30T02:23:39.793Z,81.29
2023-04-30T02:26:06.577Z,80.95
2023-04-30T02:28:33.449Z,80.82
2023-04-30T02:31:00.234Z,80.98
2023-04-30T02:33:27.073Z,81.86
2023-04-30T02:35:55.509Z,83.59
2023-04-30T02:38:22.303Z,82.79
2023-04-30T02:40:49.240Z,82.34
2023-04-30T02:43:15.999Z,81.05
2023-04-30T02:45:43.019Z,80.87
2023-04-30T02:48:09.959Z,81.45
2023-04-30T02:50:36.778Z,82.89
2023-04-30T02:53:03.645Z,82.74
2023-04-30T02:55:31.391Z,82.30
2023-04-30T02:57:58.215Z,82.91
2023-04-30T03:00:25.046Z,83.23
2023-04-30T03:02:51.946Z,81.91
2023-04-30T03:05:18.971Z,82.33
2023-04-30T03:07:45.785Z,82.36
2023-04-30T03:10:12.626Z,82.13
2023-04-30T03:12:39.478Z,82.92
2023-04-30T03:15:07.039Z,83.13
2023-04-30T03:17:34.012Z,82.41
2023-04-30T03:20:00.870Z,81.88
2023-04-30T03:22:27.773Z,81.67
2023-04-30T03:24:54.574Z,81.67
2023-04-30T03:27:21.325Z,82.30
2023-04-30T03:29:49.329Z,82.82
2023-04-30T03:32:16.178Z,82.17
2023-04-30T03:34:43.048Z,82.69
2023-04-30T03:37:09.883Z,82.04
2023-04-30T03:39:36.658Z,81.26
2023-04-30T03:42:03.890Z,82.28
2023-04-30T03:44:30.698Z,82.44
2023-04-30T03:46:57.600Z,83.73
2023-04-30T03:49:24.417Z,83.41
2023-04-30T03:51:51.332Z,83.38
2023-04-30T03:54:18.193Z,82.38
2023-04-30T03:56:45.092Z,81.75
2023-04-30T03:59:12.008Z,82.29
2023-04-30T04:01:38.824Z,83.23
2023-04-30T04:04:05.811Z,83.70
2023-04-30T04:06:32.793Z,83.78
2023-04-30T04:08:59.671Z,83.65
2023-04-30T04:11:26.743Z,82.51
2023-04-30T04:13:53.532Z,82.08
2023-04-30T04:16:20.684Z,82.25
2023-04-30T04:18:47.564Z,83.08
2023-04-30T04:21:14.419Z,82.90
2023-04-30T04:23:44.309Z,83.25
2023-04-30T04:26:11.145Z,83.31
2023-04-30T04:28:39.500Z,83.47
2023-04-30T04:31:06.364Z,83.04
2023-04-30T04:33:33.461Z,82.68
2023-04-30T04:36:00.255Z,83.45
2023-04-30T04:38:27.150Z,84.04
2023-04-30T04:40:54.698Z,83.66
2023-04-30T04:43:23.978Z,84.20
2023-04-30T04:45:50.957Z,83.76
2023-04-30T04:48:17.772Z,83.33
2023-04-30T04:50:44.628Z,82.69
2023-04-30T04:53:11.468Z,83.37
2023-04-30T04:55:38.276Z,83.82
2023-04-30T04:58:05.064Z,83.86
2023-04-30T05:00:31.876Z,84.40
2023-04-30T05:02:59.002Z,83.70
2023-04-30T05:05:26.159Z,83.30
2023-04-30T05:07:55.299Z,82.76
2023-04-30T05:10:22.282Z,84.05
2023-04-30T05:12:49.060Z,84.35
2023-04-30T05:15:15.949Z,84.26
2023-04-30T05:17:42.915Z,84.28
2023-04-30T05:20:10.367Z,84.74
2023-04-30T05:22:37.160Z,83.98
2023-04-30T05:25:04.617Z,84.06
2023-04-30T05:27:31.382Z,84.08
2023-04-30T05:29:58.158Z,84.61
2023-04-30T05:32:25.070Z,84.68
2023-04-30T05:34:52.666Z,84.98
2023-04-30T05:37:20.881Z,84.72
2023-04-30T05:39:47.674Z,83.73
2023-04-30T05:42:14.521Z,82.96
2023-04-30T05:44:41.764Z,83.06
2023-04-30T05:47:08.596Z,83.85
2023-04-30T05:49:37.711Z,83.50
2023-04-30T05:52:04.642Z,83.52
2023-04-30T05:54:31.647Z,83.81
2023-04-30T05:56:58.505Z,82.83
2023-04-30T05:59:26.251Z,82.31
2023-04-30T06:01:53.249Z,82.11
2023-04-30T06:04:20.258Z,81.80
2023-04-30T06:06:47.109Z,82.17
2023-04-30T06:09:14.103Z,83.04
2023-04-30T06:11:42.502Z,82.87
2023-04-30T06:14:10.481Z,80.81
2023-04-30T06:16:38.403Z,80.42
2023-04-30T06:19:05.316Z,79.83
2023-04-30T06:21:32.266Z,80.54
2023-04-30T06:23:59.044Z,79.74
2023-04-30T06:26:25.855Z,79.55
2023-04-30T06:28:52.749Z,78.37
2023-04-30T06:31:19.609Z,75.26
2023-04-30T06:33:46.452Z,73.81
2023-04-30T06:36:13.693Z,73.63
2023-04-30T06:38:40.835Z,73.70
2023-04-30T06:41:07.762Z,73.62
2023-04-30T06:43:34.605Z,72.47
2023-04-30T06:46:01.536Z,71.29
2023-04-30T06:48:28.453Z,69.24
2023-04-30T06:50:55.326Z,66.98
2023-04-30T06:53:22.189Z,65.77
2023-04-30T06:55:49.086Z,66.67
2023-04-30T06:58:15.940Z,67.53
2023-04-30T07:00:43.358Z,68.21
2023-04-30T07:03:10.336Z,67.39
2023-04-30T07:05:37.445Z,67.35
2023-04-30T07:08:04.729Z,66.53
2023-04-30T07:10:31.999Z,65.43
2023-04-30T07:12:59.741Z,65.15
2023-04-30T07:15:26.892Z,65.99
2023-04-30T07:17:53.874Z,65.45
2023-04-30T07:20:20.755Z,66.65
2023-04-30T07:22:47.589Z,66.28
2023-04-30T07:25:14.488Z,65.65
2023-04-30T07:27:41.812Z,66.02
2023-04-30T07:30:11.078Z,67.05
2023-04-30T07:32:38.759Z,67.68
2023-04-30T07:35:06.622Z,66.77
2023-04-30T07:37:35.397Z,66.65
2023-04-30T07:40:03.921Z,67.06
2023-04-30T07:42:30.786Z,66.10
2023-04-30T07:44:57.824Z,65.69
2023-04-30T07:47:25.932Z,64.81
2023-04-30T07:49:53.194Z,63.19
2023-04-30T07:52:23.566Z,62.63
2023-04-30T07:54:50.439Z,61.79
2023-04-30T07:57:17.621Z,60.64
2023-04-30T07:59:44.465Z,60.32
2023-04-30T08:02:11.339Z,60.32
2023-04-30T08:04:38.244Z,60.52
2023-04-30T08:07:05.092Z,60.93
2023-04-30T08:09:32.056Z,59.85
2023-04-30T08:11:58.932Z,59.75
2023-04-30T08:14:25.836Z,60.26
2023-04-30T08:16:53.047Z,60.24
2023-04-30T08:19:19.902Z,59.46
2023-04-30T08:21:46.864Z,59.66
2023-04-30T08:24:13.885Z,60.24
2023-04-30T08:26:40.815Z,60.99
2023-04-30T08:29:08.830Z,61.44
2023-04-30T08:31:36.148Z,61.26
2023-04-30T08:34:03.080Z,60.99
2023-04-30T08:36:30.024Z,60.68
2023-04-30T08:38:57.924Z,60.97
2023-04-30T08:41:26.668Z,62.33
2023-04-30T08:43:54.214Z,62.08
2023-04-30T08:46:21.266Z,61.49
2023-04-30T08:48:49.311Z,62.10
2023-04-30T08:51:17.605Z,61.63
2023-04-30T08:53:45.014Z,61.41
2023-04-30T08:56:11.904Z,60.89
2023-04-30T08:58:39.898Z,60.63
2023-04-30T09:01:11.149Z,60.43
2023-04-30T09:03:38.330Z,59.33
2023-04-30T09:06:05.434Z,58.72
2023-04-30T09:08:42.102Z,58.02
2023-04-30T09:11:19.213Z,57.35
2023-04-30T09:13:46.160Z,55.75
2023-04-30T09:16:13.202Z,55.61
2023-04-30T09:18:42.146Z,54.99
2023-04-30T09:21:10.375Z,54.09
2023-04-30T09:23:37.324Z,54.04
2023-04-30T09:26:04.351Z,54.67
2023-04-30T09:28:32.147Z,53.36
2023-04-30T09:30:59.086Z,53.50
2023-04-30T09:33:25.940Z,52.10
2023-04-30T09:35:52.985Z,52.27
2023-04-30T09:38:29.816Z,53.51
2023-04-30T09:40:59.101Z,52.21
2023-04-30T09:43:26.392Z,51.86
2023-04-30T09:45:53.285Z,51.42
2023-04-30T09:48:24.347Z,51.44
2023-04-30T09:50:52.399Z,49.92
2023-04-30T09:53:20.563Z,50.27
2023-04-30T09:55:50.007Z,50.39
2023-04-30T09:58:18.109Z,50.45
2023-04-30T10:00:46.691Z,50.35
2023-04-30T10:03:15.329Z,49.92
2023-04-30T10:05:43.365Z,51.39
2023-04-30T10:08:13.782Z,50.63
2023-04-30T10:10:43.606Z,51.19
2023-04-30T10:13:12.010Z,50.22
2023-04-30T10:15:40.856Z,50.60
2023-04-30T10:18:12.145Z,50.16
2023-04-30T10:20:39.439Z,49.34
2023-04-30T10:23:07.617Z,50.25
2023-04-30T10:25:34.712Z,49.99
2023-04-30T10:28:04.505Z,49.19
2023-04-30T10:30:32.396Z,49.99
2023-04-30T10:32:59.506Z,50.84
2023-04-30T10:35:29.181Z,50.37
2023-04-30T10:38:05.975Z,51.29
2023-04-30T10:40:39.950Z,51.15
2023-04-30T10:43:06.886Z,51.16
2023-04-30T10:45:35.253Z,51.54
2023-04-30T10:48:03.845Z,51.55
2023-04-30T10:50:31.152Z,51.80
2023-04-30T10:53:07.597Z,51.44
2023-04-30T10:55:39.952Z,51.12
2023-04-30T10:58:23.370Z,51.61
2023-04-30T11:00:59.684Z,51.90
2023-04-30T11:03:28.762Z,51.67
2023-04-30T11:05:55.982Z,52.29
2023-04-30T11:08:32.418Z,52.04
2023-04-30T11:11:02.161Z,51.63
2023-04-30T11:13:29.103Z,51.28
2023-04-30T11:16:02.922Z,51.04
2023-04-30T11:18:30.043Z,51.51
2023-04-30T11:20:57.867Z,52.22
2023-04-30T11:23:38.488Z,51.69
2023-04-30T11:26:07.998Z,52.78
2023-04-30T11:28:36.191Z,51.92
2023-04-30T11:31:03.943Z,51.08
2023-04-30T11:33:31.890Z,52.20
2023-04-30T11:36:00.051Z,53.91
2023-04-30T11:38:28.598Z,53.62
2023-04-30T11:40:55.873Z,53.18
2023-04-30T11:43:24.558Z,52.76
2023-04-30T11:46:00.511Z,51.42
2023-04-30T11:48:35.281Z,51.56
2023-04-30T11:51:04.026Z,51.21
2023-04-30T11:53:31.555Z,50.20
2023-04-30T11:56:02.694Z,50.41
2023-04-30T11:58:33.891Z,50.13
2023-04-30T12:01:01.893Z,50.00
2023-04-30T12:03:29.743Z,50.58
2023-04-30T12:05:56.923Z,49.72
2023-04-30T12:08:24.621Z,49.18
2023-04-30T12:10:51.438Z,50.05
2023-04-30T12:13:18.486Z,50.73
2023-04-30T12:15:57.999Z,48.91
2023-04-30T12:18:24.945Z,49.46
2023-04-30T12:20:52.128Z,49.60
2023-04-30T12:23:19.784Z,48.61
2023-04-30T12:25:48.207Z,48.84
2023-04-30T12:28:15.329Z,48.64
2023-04-30T12:30:43.548Z,48.64
2023-04-30T12:33:11.219Z,47.58
2023-04-30T12:35:42.821Z,47.86
2023-04-30T12:38:10.048Z,47.01
2023-04-30T12:40:37.421Z,47.38
2023-04-30T12:43:05.591Z,47.08
2023-04-30T12:45:42.480Z,47.70
2023-04-30T12:48:09.777Z,48.03
2023-04-30T12:50:36.885Z,47.56
2023-04-30T12:53:04.232Z,46.61
2023-04-30T12:55:31.589Z,47.36
2023-04-30T12:58:06.731Z,46.44
2023-04-30T13:00:43.426Z,46.80
2023-04-30T13:03:10.679Z,47.88
2023-04-30T13:05:37.744Z,46.36
2023-04-30T13:08:06.703Z,46.26
2023-04-30T13:10:33.655Z,46.15
2023-04-30T13:13:00.527Z,45.78
2023-04-30T13:15:27.816Z,45.95
2023-04-30T13:17:54.789Z,46.84
2023-04-30T13:20:22.089Z,45.97
2023-04-30T13:22:48.988Z,44.48
2023-04-30T13:25:16.016Z,44.10
2023-04-30T13:27:43.203Z,44.54
2023-04-30T13:30:10.840Z,44.98
2023-04-30T13:32:37.800Z,44.12
2023-04-30T13:35:05.042Z,43.63
2023-04-30T13:37:32.446Z,43.52
2023-04-30T13:40:01.796Z,44.36
2023-04-30T13:42:28.820Z,44.97
2023-04-30T13:44:55.798Z,44.61
2023-04-30T13:47:22.875Z,44.40
2023-04-30T13:49:49.779Z,44.35
2023-04-30T13:52:16.920Z,44.01
2023-04-30T13:54:44.002Z,43.69
2023-04-30T13:57:10.956Z,45.09
2023-04-30T13:59:38.884Z,43.88
2023-04-30T14:02:05.946Z,43.54
2023-04-30T14:04:32.950Z,43.52
2023-04-30T14:07:00.127Z,44.47
2023-04-30T14:09:27.530Z,42.70
2023-04-30T14:11:56.543Z,44.92
2023-04-30T14:14:23.700Z,43.91
2023-04-30T14:16:50.829Z,44.12
2023-04-30T14:19:17.876Z,42.59
2023-04-30T14:21:44.928Z,42.81
2023-04-30T14:24:13.289Z,43.21
2023-04-30T14:26:41.564Z,43.63
2023-04-30T14:29:08.886Z,42.97
2023-04-30T14:31:35.815Z,42.77
2023-04-30T14:34:03.135Z,41.99
2023-04-30T14:36:30.182Z,41.99
2023-04-30T14:38:56.985Z,43.18
2023-04-30T14:41:23.911Z,42.95
2023-04-30T14:43:50.746Z,43.31
2023-04-30T14:46:18.424Z,42.24
2023-04-30T14:48:45.719Z,41.42
2023-04-30T14:51:12.583Z,42.14
2023-04-30T14:53:39.708Z,43.55
2023-04-30T14:56:07.517Z,43.65
2023-04-30T14:58:34.427Z,42.93
2023-04-30T15:01:01.792Z,42.35
2023-04-30T15:03:29.120Z,42.42
2023-04-30T15:05:56.454Z,43.48
2023-04-30T15:08:23.469Z,44.67
2023-04-30T15:10:50.474Z,44.22
2023-04-30T15:13:17.323Z,44.02
2023-04-30T15:15:47.321Z,44.38
2023-04-30T15:18:14.785Z,44.29
2023-04-30T15:20:42.019Z,44.63
2023-04-30T15:23:09.194Z,45.26
2023-04-30T15:25:36.265Z,46.03
2023-04-30T15:28:03.638Z,45.61
2023-04-30T15:30:30.520Z,45.81
2023-04-30T15:32:57.750Z,45.62
2023-04-30T15:35:24.961Z,44.65
2023-04-30T15:37:51.919Z,45.83
2023-04-30T15:40:19.297Z,46.28
2023-04-30T15:42:46.604Z,46.91
2023-04-30T15:45:13.613Z,45.96
2023-04-30T15:47:41.647Z,45.76
2023-04-30T15:50:09.026Z,46.40
2023-04-30T15:52:37.643Z,45.80
2023-04-30T15:55:06.798Z,45.54
2023-04-30T15:57:33.637Z,46.07
2023-04-30T16:00:00.734Z,45.86
2023-04-30T16:02:27.824Z,47.25
2023-04-30T16:04:54.894Z,47.16
2023-04-30T16:07:21.796Z,47.77
2023-04-30T16:09:49.709Z,48.22
2023-04-30T16:12:16.823Z,47.73
2023-04-30T16:14:43.787Z,48.08
2023-04-30T16:17:11.024Z,48.09
2023-04-30T16:19:38.005Z,47.18
2023-04-30T16:22:04.923Z,46.84
2023-04-30T16:24:31.796Z,46.86
2023-04-30T16:26:58.767Z,47.11
2023-04-30T16:29:26.301Z,48.05
2023-04-30T16:31:53.861Z,48.19
2023-04-30T16:34:20.879Z,48.26
2023-04-30T16:36:47.753Z,48.27
2023-04-30T16:39:17.038Z,48.14
2023-04-30T16:41:44.131Z,48.96
2023-04-30T16:44:11.657Z,49.61
2023-04-30T16:46:38.637Z,48.73
2023-04-30T16:49:05.696Z,48.59
2023-04-30T16:51:33.463Z,49.67
2023-04-30T16:54:00.386Z,49.85
2023-04-30T16:56:27.357Z,48.70
2023-04-30T16:58:54.496Z,48.65
2023-04-30T17:01:21.436Z,50.72
2023-04-30T17:03:48.588Z,51.07
2023-04-30T17:06:15.677Z,50.37
2023-04-30T17:08:42.600Z,50.16
2023-04-30T17:11:12.127Z,50.69
2023-04-30T17:13:39.087Z,51.35
2023-04-30T17:16:08.352Z,51.63
2023-04-30T17:18:35.418Z,52.08
2023-04-30T17:21:02.320Z,51.82
2023-04-30T17:23:29.187Z,51.84
2023-04-30T17:25:57.735Z,51.30
2023-04-30T17:28:24.777Z,51.31
2023-04-30T17:30:51.714Z,52.12
2023-04-30T17:33:18.619Z,52.90
2023-04-30T17:35:45.553Z,52.39
2023-04-30T17:38:12.458Z,52.42
2023-04-30T17:40:39.511Z,53.06
2023-04-30T17:43:07.268Z,51.92
2023-04-30T17:45:34.199Z,52.16
2023-04-30T17:48:01.253Z,52.35
2023-04-30T17:50:28.203Z,52.25
2023-04-30T17:52:55.239Z,52.97
2023-04-30T17:55:22.336Z,52.37
2023-04-30T17:57:49.223Z,52.37
2023-04-30T18:00:17.661Z,52.95
2023-04-30T18:02:44.895Z,52.97
2023-04-30T18:05:12.142Z,54.65
2023-04-30T18:07:39.027Z,53.57
2023-04-30T18:10:06.627Z,53.36
2023-04-30T18:12:33.701Z,53.15
2023-04-30T18:15:01.037Z,53.74
2023-04-30T18:17:28.072Z,53.38
2023-04-30T18:19:55.169Z,54.81
2023-04-30T18:22:22.462Z,54.82
2023-04-30T18:24:49.523Z,55.24
2023-04-30T18:27:16.566Z,55.28
2023-04-30T18:29:44.558Z,55.55
2023-04-30T18:32:13.051Z,54.99
2023-04-30T18:34:40.176Z,54.96
2023-04-30T18:37:07.068Z,56.53
2023-04-30T18:39:33.971Z,55.93
2023-04-30T18:42:00.901Z,56.09
2023-04-30T18:44:30.662Z,56.46
2023-04-30T18:46:57.601Z,56.23
2023-04-30T18:49:24.522Z,56.47
2023-04-30T18:51:51.455Z,56.55
2023-04-30T18:54:18.816Z,57.04
2023-04-30T18:56:45.737Z,57.86
2023-04-30T18:59:12.712Z,61.35
2023-04-30T19:01:39.729Z,62.37
2023-04-30T19:04:06.846Z,59.41
2023-04-30T19:06:34.778Z,57.93
2023-04-30T19:09:01.768Z,57.79
2023-04-30T19:11:28.984Z,57.37
2023-04-30T19:13:56.054Z,57.30
2023-04-30T19:16:23.108Z,57.97
2023-04-30T19:18:49.996Z,57.78
2023-04-30T19:21:18.486Z,57.41
2023-04-30T19:23:45.650Z,57.85
2023-04-30T19:26:12.636Z,58.03
2023-04-30T19:28:39.500Z,56.25
2023-04-30T19:31:06.459Z,55.47
2023-04-30T19:33:39.720Z,54.88
2023-04-30T19:36:06.804Z,56.60
2023-04-30T19:38:33.751Z,57.39
2023-04-30T19:41:01.140Z,58.25
2023-04-30T19:43:41.835Z,58.10
2023-04-30T19:46:17.567Z,58.94
2023-04-30T19:48:51.133Z,60.49
2023-04-30T19:51:24.047Z,60.70
2023-04-30T19:54:01.301Z,59.55
2023-04-30T19:56:36.573Z,59.15
2023-04-30T19:59:09.391Z,59.31
2023-04-30T20:04:28.787Z,58.50
2023-04-30T20:10:14.536Z,58.37
2023-04-30T20:12:52.934Z,58.23
2023-04-30T20:15:33.949Z,57.35
2023-04-30T20:18:10.875Z,56.76
2023-04-30T20:20:40.241Z,59.16
2023-04-30T20:23:19.223Z,58.08
2023-04-30T20:26:08.221Z,58.76
2023-04-30T20:28:38.669Z,59.14
2023-04-30T20:31:08.263Z,60.21
2023-04-30T20:33:35.318Z,59.39
2023-04-30T20:36:03.467Z,58.95
2023-04-30T20:38:30.731Z,58.02
2023-04-30T20:40:59.019Z,59.32
2023-04-30T20:43:26.055Z,59.22
2023-04-30T20:45:56.630Z,59.02
2023-04-30T20:48:23.613Z,59.00
2023-04-30T20:50:51.002Z,59.11
2023-04-30T20:53:18.392Z,58.65
2023-04-30T20:55:45.229Z,56.63
2023-04-30T20:58:12.315Z,56.59
2023-04-30T21:00:39.468Z,58.04
2023-04-30T21:03:06.884Z,56.85
2023-04-30T21:05:34.611Z,57.69
2023-04-30T21:08:01.916Z,57.95
2023-04-30T21:10:36.776Z,56.85
2023-04-30T21:13:05.895Z,58.68
2023-04-30T21:15:34.681Z,57.39
2023-04-30T21:18:01.868Z,56.87
2023-04-30T21:20:28.983Z,58.20
2023-04-30T21:22:56.966Z,58.90
2023-04-30T21:25:23.844Z,59.18
2023-04-30T21:27:50.774Z,58.57
2023-04-30T21:30:17.902Z,57.89
2023-04-30T21:32:47.319Z,60.06
2023-04-30T21:35:14.733Z,58.71
2023-04-30T21:37:42.577Z,58.45
2023-04-30T21:40:09.875Z,58.81
2023-04-30T21:42:37.062Z,59.82
2023-04-30T21:45:04.161Z,60.45
2023-04-30T21:47:32.011Z,60.61
2023-04-30T21:49:59.385Z,60.34
2023-04-30T21:52:26.578Z,60.06
2023-04-30T21:54:53.480Z,59.38
2023-04-30T21:57:20.511Z,58.85
2023-04-30T21:59:47.400Z,59.09
2023-04-30T22:02:23.253Z,59.37
2023-04-30T22:04:51.088Z,59.57
2023-04-30T22:07:17.895Z,59.68
2023-04-30T22:09:45.268Z,59.62
2023-04-30T22:12:12.506Z,60.08
2023-04-30T22:14:39.551Z,60.10
2023-04-30T22:17:06.953Z,60.46
2023-04-30T22:19:33.812Z,60.38
2023-04-30T22:22:00.823Z,60.08
2023-04-30T22:24:27.676Z,60.66
2023-04-30T22:26:55.039Z,60.37
2023-04-30T22:29:21.885Z,60.44
2023-04-30T22:31:48.841Z,60.57
2023-04-30T22:34:18.237Z,60.97
2023-04-30T22:36:46.314Z,61.18
2023-04-30T22:39:13.712Z,61.35
2023-04-30T22:41:40.906Z,61.59
2023-04-30T22:44:07.922Z,61.77
2023-04-30T22:46:36.980Z,61.97
2023-04-30T22:49:04.175Z,62.09
2023-04-30T22:51:32.007Z,63.16
2023-04-30T22:53:58.932Z,62.89
2023-04-30T22:56:25.784Z,62.88
2023-04-30T22:58:52.635Z,62.82
2023-04-30T23:01:20.427Z,63.10
2023-04-30T23:03:47.372Z,63.23
2023-04-30T23:06:17.104Z,64.88
2023-04-30T23:08:44.648Z,65.39
2023-04-30T23:11:11.589Z,65.88
2023-04-30T23:13:38.964Z,65.12
2023-04-30T23:16:09.028Z,65.74
2023-04-30T23:18:37.559Z,65.51
2023-04-30T23:21:05.554Z,65.42
2023-04-30T23:23:33.044Z,65.86
2023-04-30T23:25:59.844Z,65.25
2023-04-30T23:28:26.752Z,64.89
2023-04-30T23:30:54.591Z,64.61
2023-04-30T23:33:21.925Z,64.81
2023-04-30T23:35:49.240Z,64.62
2023-04-30T23:38:16.633Z,64.89
2023-04-30T23:40:44.139Z,65.31
2023-04-30T23:43:12.893Z,67.32
2023-04-30T23:45:42.451Z,65.50
2023-04-30T23:48:10.685Z,65.20
2023-04-30T23:50:38.579Z,65.41
2023-04-30T23:53:05.399Z,65.44
2023-04-30T23:55:32.266Z,65.77
2023-04-30T23:57:59.083Z,66.82
